Athens, West Virginia
Current Conditions -  °F | °C
As of 10:52 PM on Friday 19 Dec 2014 (Local Time) from KBLF Reporting Station
Clear Clear  
Wind Chill: 28°   Ceiling: Unl
Heat Index: 28°   Visibility: 10mi
Dew Point: 22°   Wind: 0mph
Humidity: 78%   Direction: NA
Pressure: 30.14"   Gusts: NA
Location:  37.42°N, 81.02°W
Report Text: KBLF 200352Z AUTO 00000KT 10SM CLR M02/M06 A3014 RMK AO2 SLP225 T10221056
Loading
Personal Weather Stations






























Interactive Weather Map New forecast layout! Learn more

10-Day Weather Forecast

Advertisements
Track Severe Weather on mobile